createdAt,value
2019-02-09T00:00:03.911Z,998.89
2019-02-09T00:01:02.855Z,998.77
2019-02-09T00:12:45.969Z,998.75
2019-02-09T00:13:39.634Z,998.65
2019-02-09T00:14:39.633Z,998.73
2019-02-09T00:15:39.554Z,998.76
2019-02-09T00:16:39.537Z,998.70
2019-02-09T00:17:39.536Z,998.67
2019-02-09T00:18:39.565Z,998.60
2019-02-09T00:19:39.538Z,998.65
2019-02-09T00:20:39.499Z,998.61
2019-02-09T00:21:39.490Z,998.65
2019-02-09T00:22:39.482Z,998.66
2019-02-09T00:23:39.483Z,998.65
2019-02-09T00:28:12.803Z,998.72
2019-02-09T00:29:12.760Z,998.52
2019-02-09T00:30:12.817Z,998.47
2019-02-09T00:31:12.698Z,998.49
2019-02-09T00:32:12.694Z,998.42
2019-02-09T00:33:12.712Z,998.44
2019-02-09T00:34:12.675Z,998.45
2019-02-09T00:37:48.667Z,998.36
2019-02-09T00:38:48.667Z,998.31
2019-02-09T00:39:48.612Z,998.41
2019-02-09T00:41:07.280Z,998.35
2019-02-09T00:51:58.641Z,998.22
2019-02-09T00:52:58.703Z,998.21
2019-02-09T00:53:58.531Z,998.18
2019-02-09T00:54:58.505Z,998.11
2019-02-09T00:55:58.477Z,998.14
2019-02-09T00:56:58.433Z,998.12
2019-02-09T03:01:12.709Z,997.52
2019-02-09T04:32:27.112Z,998.67
2019-02-09T04:33:25.659Z,998.71
2019-02-09T04:34:25.634Z,998.70
2019-02-09T04:35:25.627Z,998.69
2019-02-09T07:30:48.283Z,1000.96
2019-02-09T07:31:42.273Z,1001.05
2019-02-09T07:32:42.239Z,1000.99
2019-02-09T09:19:27.520Z,1002.38
2019-02-09T09:19:58.908Z,1002.37
2019-02-09T09:20:58.892Z,1002.44
2019-02-09T09:21:58.884Z,1002.40
2019-02-09T09:22:58.879Z,1002.47
2019-02-09T09:23:58.870Z,1002.50
2019-02-09T09:24:59.303Z,1002.38
2019-02-09T09:25:58.853Z,1002.46
2019-02-09T09:26:58.833Z,1002.43
2019-02-09T09:27:58.829Z,1002.43
2019-02-09T09:28:58.833Z,1002.45
2019-02-09T09:29:58.864Z,1002.44
2019-02-09T09:30:58.847Z,1002.49
2019-02-09T09:31:58.803Z,1002.42
2019-02-09T09:32:58.776Z,1002.47
2019-02-09T09:33:58.795Z,1002.46
2019-02-09T09:34:58.772Z,1002.51
2019-02-09T09:35:58.777Z,1002.47
2019-02-09T09:36:58.725Z,1002.52
2019-02-09T09:37:58.715Z,1002.60
2019-02-09T09:38:58.900Z,1002.59
2019-02-09T09:39:58.715Z,1002.65
2019-02-09T09:40:58.711Z,1002.56
2019-02-09T09:41:58.696Z,1002.66
2019-02-09T09:42:58.656Z,1002.62
2019-02-09T09:43:58.641Z,1002.53
2019-02-09T09:44:58.690Z,1002.54
2019-02-09T10:16:44.251Z,1002.67
2019-02-09T10:17:06.232Z,1002.63
2019-02-09T10:18:06.244Z,1002.73
2019-02-09T10:19:06.292Z,1002.68
2019-02-09T10:20:06.218Z,1002.75
2019-02-09T10:21:06.231Z,1002.72
2019-02-09T10:22:06.197Z,1002.80
2019-02-09T10:23:06.239Z,1002.75
2019-02-09T10:24:06.173Z,1002.73
2019-02-09T10:25:06.158Z,1002.83
2019-02-09T10:26:06.148Z,1002.70
2019-02-09T10:27:06.198Z,1002.78
2019-02-09T10:28:06.140Z,1002.76
2019-02-09T10:29:06.143Z,1002.70
2019-02-09T10:30:06.094Z,1002.73
2019-02-09T10:31:06.138Z,1002.85
2019-02-09T10:32:06.070Z,1002.76
2019-02-09T10:33:06.173Z,1002.77
2019-02-09T10:34:06.053Z,1002.78
2019-02-09T10:35:06.083Z,1002.75
2019-02-09T10:36:06.049Z,1002.67
2019-02-09T10:37:06.013Z,1002.68
2019-02-09T10:38:06.001Z,1002.73
2019-02-09T10:39:05.989Z,1002.85
2019-02-09T10:40:05.979Z,1002.80
2019-02-09T10:41:05.997Z,1002.76
2019-02-09T10:42:05.957Z,1002.82
2019-02-09T10:43:05.944Z,1002.87
2019-02-09T10:44:05.935Z,1002.84
2019-02-09T10:45:05.927Z,1002.91
2019-02-09T10:46:05.912Z,1002.85
2019-02-09T10:47:05.921Z,1002.87
2019-02-09T10:48:05.890Z,1002.88
2019-02-09T10:49:05.882Z,1002.88
2019-02-09T10:50:05.905Z,1002.82
2019-02-09T10:51:05.860Z,1002.86
2019-02-09T10:52:05.882Z,1002.91
2019-02-09T10:53:05.839Z,1002.83
2019-02-09T10:54:05.851Z,1002.85
2019-02-09T10:55:05.817Z,1002.99
2019-02-09T10:56:05.815Z,1002.87
2019-02-09T10:57:05.836Z,1002.93
2019-02-09T11:03:59.287Z,1002.76
2019-02-09T11:04:59.157Z,1002.94
2019-02-09T11:05:59.140Z,1002.91
2019-02-09T11:06:59.128Z,1002.84
2019-02-09T11:07:59.134Z,1002.71
2019-02-09T11:08:59.102Z,1002.85
2019-02-09T11:09:59.092Z,1002.85
2019-02-09T11:10:59.080Z,1002.78
2019-02-09T11:11:59.068Z,1002.73
2019-02-09T11:12:59.100Z,1002.84
2019-02-09T11:13:59.050Z,1002.70
2019-02-09T11:21:31.626Z,1002.73
2019-02-09T11:22:31.646Z,1002.74
2019-02-09T11:23:31.587Z,1002.65
2019-02-09T11:26:36.012Z,1002.66
2019-02-09T11:27:36.100Z,1002.70
2019-02-09T11:28:36.011Z,1002.74
2019-02-09T11:29:35.945Z,1002.72
2019-02-09T11:30:35.935Z,1002.78
2019-02-09T11:31:35.925Z,1002.75
2019-02-09T11:32:35.914Z,1002.73
2019-02-09T11:33:35.923Z,1002.80
2019-02-09T11:34:35.895Z,1002.75
2019-02-09T11:35:35.881Z,1002.70
2019-02-09T11:36:35.868Z,1002.79
2019-02-09T11:37:35.860Z,1002.70
2019-02-09T11:38:35.877Z,1002.78
2019-02-09T11:39:35.841Z,1002.74
2019-02-09T11:40:35.831Z,1002.76
2019-02-09T11:41:35.812Z,1002.72
2019-02-09T11:42:35.803Z,1002.78
2019-02-09T11:43:35.885Z,1002.72
2019-02-09T11:44:41.059Z,1002.82
2019-02-09T11:45:36.872Z,1002.70
2019-02-09T11:46:35.767Z,1002.75
2019-02-09T11:47:35.751Z,1002.68
2019-02-09T11:48:35.774Z,1002.69
2019-02-09T11:49:35.729Z,1002.72
2019-02-09T11:50:35.726Z,1002.67
2019-02-09T11:51:35.706Z,1002.67
2019-02-09T11:52:35.709Z,1002.70
2019-02-09T11:53:35.683Z,1002.76
2019-02-09T11:54:35.692Z,1002.93
2019-02-09T11:55:35.677Z,1002.74
2019-02-09T11:56:36.399Z,1002.59
2019-02-09T11:57:35.646Z,1002.72
2019-02-09T11:58:35.711Z,1002.81
2019-02-09T11:59:35.621Z,1002.78
2019-02-09T12:00:35.637Z,1002.68
2019-02-09T12:01:36.124Z,1002.69
2019-02-09T12:02:35.588Z,1002.70
2019-02-09T12:03:35.898Z,1002.67
2019-02-09T12:04:35.565Z,1002.68
2019-02-09T12:05:35.565Z,1002.67
2019-02-09T12:06:35.667Z,1002.68
2019-02-09T12:07:35.539Z,1002.66
2019-02-09T12:08:35.524Z,1002.66
2019-02-09T12:09:35.513Z,1002.75
2019-02-09T12:10:35.499Z,1002.63
2019-02-09T12:11:35.511Z,1002.76
2019-02-09T12:12:35.572Z,1002.71
2019-02-09T12:13:35.473Z,1002.64
2019-02-09T12:14:35.456Z,1002.63
2019-02-09T12:15:35.455Z,1002.72
2019-02-09T12:16:35.458Z,1002.73
2019-02-09T12:17:35.431Z,1002.64
2019-02-09T12:18:35.411Z,1002.75
2019-02-09T12:19:35.436Z,1002.67
2019-02-09T12:20:35.396Z,1002.68
2019-02-09T12:21:36.443Z,1002.70
2019-02-09T12:22:35.369Z,1002.64
2019-02-09T12:23:35.357Z,1002.64
2019-02-09T12:24:35.388Z,1002.67
2019-02-09T12:25:35.549Z,1002.75
2019-02-09T12:26:35.365Z,1002.60
2019-02-09T12:27:35.327Z,1002.65
2019-02-09T12:28:35.322Z,1002.61
2019-02-09T12:29:35.311Z,1002.64
2019-02-09T12:30:35.282Z,1002.52
2019-02-09T12:31:35.275Z,1002.61
2019-02-09T12:32:35.261Z,1002.66
2019-02-09T12:33:35.252Z,1002.81
2019-02-09T12:34:35.282Z,1002.69
2019-02-09T12:35:35.250Z,1002.70
2019-02-09T12:36:35.269Z,1002.69
2019-02-09T12:37:35.202Z,1002.76
2019-02-09T12:38:35.194Z,1002.72
2019-02-09T12:39:35.183Z,1002.69
2019-02-09T12:40:35.355Z,1002.57
2019-02-09T12:41:35.164Z,1002.55
2019-02-09T12:42:35.179Z,1002.61
2019-02-09T12:43:35.136Z,1002.59
2019-02-09T12:44:35.134Z,1002.72
2019-02-09T12:49:22.510Z,1002.57
2019-02-09T12:50:22.606Z,1002.55
2019-02-09T12:51:22.433Z,1002.59
2019-02-09T12:52:22.353Z,1002.52
2019-02-09T12:53:22.342Z,1002.55
2019-02-09T12:54:22.334Z,1002.60
2019-02-09T12:55:22.355Z,1002.55
2019-02-09T12:56:22.331Z,1002.49
2019-02-09T12:57:22.304Z,1002.48
2019-02-09T12:58:22.303Z,1002.47
2019-02-09T12:59:22.283Z,1002.49
2019-02-09T13:00:22.273Z,1002.48
2019-02-09T13:01:22.288Z,1002.55
2019-02-09T13:02:22.257Z,1002.49
2019-02-09T13:03:22.240Z,1002.46
2019-02-09T13:04:22.224Z,1002.53
2019-02-09T13:05:22.217Z,1002.39
2019-02-09T13:06:22.423Z,1002.43
2019-02-09T13:07:22.445Z,1002.52
2019-02-09T13:08:22.189Z,1002.46
2019-02-09T13:09:22.169Z,1002.46
2019-02-09T13:10:22.161Z,1002.48
2019-02-09T13:11:22.173Z,1002.44
2019-02-09T13:12:22.139Z,1002.46
2019-02-09T13:13:22.141Z,1002.46
2019-02-09T13:14:23.731Z,1002.56
2019-02-09T13:15:22.102Z,1002.57
2019-02-09T13:16:22.973Z,1002.50
2019-02-09T13:17:22.216Z,1002.48
2019-02-09T13:18:22.075Z,1002.52
2019-02-09T13:19:22.085Z,1002.54
2019-02-09T13:20:22.050Z,1002.59
2019-02-09T13:21:22.037Z,1002.55
2019-02-09T13:22:22.099Z,1002.48
2019-02-09T13:23:22.021Z,1002.61
2019-02-09T13:24:22.006Z,1002.52
2019-02-09T13:25:21.996Z,1002.55
2019-02-09T13:26:22.024Z,1002.69
2019-02-09T13:27:21.996Z,1002.58
2019-02-09T13:28:21.957Z,1002.55
2019-02-09T13:29:21.948Z,1002.56
2019-02-09T13:30:21.935Z,1002.64
2019-02-09T13:31:21.933Z,1002.76
2019-02-09T13:32:21.940Z,1002.64
2019-02-09T13:33:21.906Z,1002.65
2019-02-09T13:34:21.951Z,1002.66
2019-02-09T13:35:21.885Z,1002.80
2019-02-09T13:36:21.905Z,1002.88
2019-02-09T13:37:21.884Z,1002.88
2019-02-09T13:38:21.974Z,1002.87
2019-02-09T13:39:22.055Z,1002.96
2019-02-09T13:40:21.830Z,1002.83
2019-02-09T13:41:21.817Z,1002.83
2019-02-09T13:42:21.825Z,1002.86
2019-02-09T13:43:21.815Z,1002.95
2019-02-09T13:44:21.783Z,1002.91
2019-02-09T13:45:21.774Z,1002.92
2019-02-09T13:46:21.761Z,1002.94
2019-02-09T13:47:21.780Z,1002.96
2019-02-09T13:48:21.740Z,1002.80
2019-02-09T13:49:21.731Z,1002.87
2019-02-09T13:50:21.716Z,1002.76
2019-02-09T13:51:21.707Z,1002.91
2019-02-09T13:52:21.720Z,1002.99
2019-02-09T13:53:21.711Z,1002.93
2019-02-09T13:54:21.678Z,1003.03
2019-02-09T13:55:21.665Z,1003.07
2019-02-09T13:56:21.651Z,1003.07
2019-02-09T13:57:21.642Z,1003.11
2019-02-09T13:58:21.650Z,1003.07
2019-02-09T13:59:21.618Z,1003.07
2019-02-09T14:00:21.609Z,1003.03
2019-02-09T14:01:21.600Z,1003.03
2019-02-09T14:02:21.736Z,1003.05
2019-02-09T14:03:21.818Z,1003.10
2019-02-09T14:04:21.713Z,1003.03
2019-02-09T14:05:21.554Z,1002.95
2019-02-09T14:06:21.542Z,1003.10
2019-02-09T14:07:21.529Z,1003.12
2019-02-09T14:08:21.518Z,1003.03
2019-02-09T14:09:21.531Z,1003.05
2019-02-09T14:10:21.504Z,1003.00
2019-02-09T14:11:21.493Z,1003.01
2019-02-09T14:12:21.474Z,1003.13
2019-02-09T14:13:21.463Z,1003.08
2019-02-09T14:14:21.487Z,1003.10
2019-02-09T14:15:21.441Z,1003.03
2019-02-09T14:16:21.430Z,1003.19
2019-02-09T14:17:21.419Z,1003.18
2019-02-09T14:18:21.435Z,1003.08
2019-02-09T14:19:21.396Z,1003.16
2019-02-09T14:20:21.387Z,1003.11
2019-02-09T14:21:21.376Z,1003.16
2019-02-09T14:22:21.366Z,1003.10
2019-02-09T14:23:21.359Z,1003.11
2019-02-09T14:24:21.362Z,1003.02
2019-02-09T14:25:21.334Z,1003.03
2019-02-09T14:26:21.321Z,1003.11
2019-02-09T14:27:21.312Z,1003.05
2019-02-09T14:28:21.302Z,1003.06
2019-02-09T14:29:21.442Z,1003.03
2019-02-09T14:30:21.277Z,1003.08
2019-02-09T14:31:21.269Z,1003.04
2019-02-09T14:32:21.265Z,1003.05
2019-02-09T14:33:21.276Z,1003.18
2019-02-09T14:34:21.263Z,1003.17
2019-02-09T14:35:21.222Z,1003.09
2019-02-09T14:36:21.215Z,1003.11
2019-02-09T14:37:21.197Z,1003.18
2019-02-09T14:38:21.188Z,1003.17
2019-02-09T14:39:21.205Z,1003.25
2019-02-09T14:40:21.167Z,1003.13
2019-02-09T14:41:21.157Z,1003.21
2019-02-09T14:42:21.143Z,1003.25
2019-02-09T14:43:21.136Z,1003.24
2019-02-09T14:44:22.057Z,1003.23
2019-02-09T14:45:21.110Z,1003.33
2019-02-09T14:46:21.139Z,1003.29
2019-02-09T14:47:21.108Z,1003.43
2019-02-09T14:48:21.083Z,1003.26
2019-02-09T14:49:21.127Z,1003.20
2019-02-09T14:50:21.062Z,1003.36
2019-02-09T14:51:21.065Z,1003.37
2019-02-09T14:52:21.035Z,1003.37
2019-02-09T14:53:21.024Z,1003.43
2019-02-09T14:54:21.039Z,1003.51
2019-02-09T14:55:21.041Z,1003.46
2019-02-09T14:56:21.009Z,1003.52
2019-02-09T14:57:20.981Z,1003.55
2019-02-09T14:58:20.978Z,1003.46
2019-02-09T14:59:21.061Z,1003.38
2019-02-09T15:00:20.944Z,1003.55
2019-02-09T15:01:20.935Z,1003.59
2019-02-09T15:02:20.953Z,1003.57
2019-02-09T15:03:25.928Z,1003.52
2019-02-09T15:04:21.946Z,1003.50
2019-02-09T15:05:20.893Z,1003.51
2019-02-09T15:06:20.912Z,1003.49
2019-02-09T15:07:20.869Z,1003.52
2019-02-09T15:08:20.857Z,1003.54
2019-02-09T15:09:20.869Z,1003.51
2019-02-09T15:10:20.834Z,1003.45
2019-02-09T15:11:20.825Z,1003.47
2019-02-09T15:12:20.813Z,1003.53
2019-02-09T15:13:20.841Z,1003.56
2019-02-09T15:14:21.075Z,1003.57
2019-02-09T15:15:20.795Z,1003.51
2019-02-09T15:16:20.777Z,1003.58
2019-02-09T15:17:20.762Z,1003.53
2019-02-09T15:18:20.746Z,1003.54
2019-02-09T15:19:20.762Z,1003.61
2019-02-09T15:20:20.727Z,1003.56
2019-02-09T15:21:20.728Z,1003.51
2019-02-09T15:22:20.706Z,1003.56
2019-02-09T15:23:20.691Z,1003.52
2019-02-09T15:24:20.719Z,1003.56
2019-02-09T15:25:20.669Z,1003.63
2019-02-09T15:26:20.660Z,1003.64
2019-02-09T15:27:20.651Z,1003.56
2019-02-09T15:28:20.670Z,1003.72
2019-02-09T15:29:20.679Z,1003.63
2019-02-09T15:30:20.654Z,1003.68
2019-02-09T15:31:20.609Z,1003.65
2019-02-09T15:32:20.597Z,1003.57
2019-02-09T15:33:20.584Z,1003.67
2019-02-09T15:34:20.629Z,1003.68
2019-02-09T15:35:20.584Z,1003.58
2019-02-09T15:36:21.501Z,1003.74
2019-02-09T15:42:53.899Z,1003.69
2019-02-09T15:43:53.870Z,1003.74
2019-02-09T15:44:53.861Z,1003.71
2019-02-09T15:45:53.882Z,1003.70
2019-02-09T15:46:53.835Z,1003.76
2019-02-09T15:47:53.878Z,1003.74
2019-02-09T15:48:53.815Z,1003.75
2019-02-09T15:49:53.804Z,1003.70
2019-02-09T15:50:53.855Z,1003.65
2019-02-09T15:51:53.779Z,1003.67
2019-02-09T15:52:53.769Z,1003.71
2019-02-09T15:53:53.768Z,1003.67
2019-02-09T15:54:53.747Z,1003.69
2019-02-09T15:55:54.077Z,1003.61
2019-02-09T15:56:53.731Z,1003.59
2019-02-09T15:57:53.719Z,1003.66
2019-02-09T15:58:53.708Z,1003.65
2019-02-09T15:59:53.694Z,1003.58
2019-02-09T16:00:53.714Z,1003.65
2019-02-09T16:01:53.670Z,1003.65
2019-02-09T16:02:53.665Z,1003.77
2019-02-09T16:03:53.650Z,1003.66
2019-02-09T16:04:53.644Z,1003.69
2019-02-09T16:05:53.774Z,1003.74
2019-02-09T16:06:53.617Z,1003.78
2019-02-09T16:07:53.610Z,1003.75
2019-02-09T16:08:53.597Z,1003.68
2019-02-09T16:09:53.580Z,1003.75
2019-02-09T16:10:53.571Z,1003.76
2019-02-09T16:11:53.597Z,1003.77
2019-02-09T16:13:45.719Z,1003.77
2019-02-09T16:13:53.535Z,1003.78
2019-02-09T16:14:53.524Z,1003.80
2019-02-09T16:15:53.509Z,1003.81
2019-02-09T16:16:53.521Z,1003.80
2019-02-09T16:17:53.529Z,1003.79
2019-02-09T16:18:53.476Z,1003.82
2019-02-09T16:19:53.468Z,1003.85
2019-02-09T16:20:53.458Z,1003.86
2019-02-09T16:21:53.466Z,1003.82
2019-02-09T16:22:53.431Z,1003.88
2019-02-09T16:23:53.440Z,1003.81
2019-02-09T16:24:53.414Z,1003.87
2019-02-09T16:25:53.401Z,1003.94
2019-02-09T16:26:53.433Z,1003.88
2019-02-09T16:27:53.378Z,1003.97
2019-02-09T16:28:53.370Z,1003.98
2019-02-09T16:29:53.355Z,1004.06
2019-02-09T16:30:53.341Z,1004.02
2019-02-09T16:31:53.332Z,1003.98
2019-02-09T16:32:53.352Z,1004.01
2019-02-09T16:33:53.315Z,1004.04
2019-02-09T16:34:53.301Z,1003.91
2019-02-09T16:35:53.298Z,1004.00
2019-02-09T16:36:53.282Z,1004.00
2019-02-09T16:37:53.298Z,1003.97
2019-02-09T16:38:53.255Z,1004.03
2019-02-09T16:39:53.244Z,1004.04
2019-02-09T16:40:53.231Z,1004.05
2019-02-09T16:41:53.221Z,1004.07
2019-02-09T16:42:53.233Z,1004.01
2019-02-09T16:43:53.201Z,1004.06
2019-02-09T16:44:53.211Z,1004.06
2019-02-09T16:45:53.178Z,1004.05
2019-02-09T16:46:53.163Z,1004.02
2019-02-09T16:47:53.186Z,1004.13
2019-02-09T16:48:53.141Z,1004.16
2019-02-09T16:49:53.130Z,1004.16
2019-02-09T16:50:53.124Z,1004.14
2019-02-09T16:51:53.107Z,1004.18
2019-02-09T16:52:53.115Z,1004.19
2019-02-09T16:53:53.085Z,1004.22
2019-02-09T16:54:53.077Z,1004.19
2019-02-09T16:55:53.062Z,1004.21
2019-02-09T16:56:53.055Z,1004.24
2019-02-09T16:57:53.062Z,1004.18
2019-02-09T16:58:53.030Z,1004.15
2019-02-09T16:59:53.020Z,1004.20
2019-02-09T17:00:53.009Z,1004.17
2019-02-09T17:01:52.997Z,1004.19
2019-02-09T17:02:53.007Z,1004.21
2019-02-09T17:03:52.974Z,1004.15
2019-02-09T17:04:52.964Z,1004.19
2019-02-09T17:05:52.952Z,1004.20
2019-02-09T17:06:52.943Z,1004.22
2019-02-09T17:07:52.947Z,1004.19
2019-02-09T17:08:52.923Z,1004.21
2019-02-09T17:09:52.905Z,1004.20
2019-02-09T17:10:52.895Z,1004.26
2019-02-09T17:11:53.345Z,1004.26
2019-02-09T17:12:52.896Z,1004.23
2019-02-09T17:13:52.862Z,1004.32
2019-02-09T17:14:52.850Z,1004.26
2019-02-09T17:15:52.839Z,1004.36
2019-02-09T17:16:52.828Z,1004.33
2019-02-09T17:17:52.836Z,1004.29
2019-02-09T17:18:52.809Z,1004.34
2019-02-09T17:19:52.795Z,1004.37
2019-02-09T17:20:53.044Z,1004.40
2019-02-09T17:21:52.773Z,1004.42
2019-02-09T17:22:52.785Z,1004.47
2019-02-09T17:23:52.762Z,1004.51
2019-02-09T17:24:52.738Z,1004.46
2019-02-09T17:25:52.730Z,1004.41
2019-02-09T17:26:52.717Z,1004.54
2019-02-09T17:27:52.734Z,1004.54
2019-02-09T17:28:52.724Z,1004.50
2019-02-09T17:29:52.684Z,1004.52
2019-02-09T17:30:52.675Z,1004.54
2019-02-09T17:31:52.663Z,1004.61
2019-02-09T17:32:52.660Z,1004.58
2019-02-09T17:33:52.669Z,1004.57
2019-02-09T17:34:52.656Z,1004.62
2019-02-09T17:35:52.711Z,1004.66
2019-02-09T17:36:52.610Z,1004.63
2019-02-09T17:37:52.624Z,1004.74
2019-02-09T17:38:52.609Z,1004.73
2019-02-09T17:39:52.624Z,1004.71
2019-02-09T17:40:52.569Z,1004.72
2019-02-09T17:41:54.156Z,1004.79
2019-02-09T17:42:53.530Z,1004.77
2019-02-09T17:43:52.560Z,1004.84
2019-02-09T17:44:52.522Z,1004.85
2019-02-09T17:45:52.511Z,1004.87
2019-02-09T17:46:52.497Z,1004.84
2019-02-09T17:47:52.495Z,1004.96
2019-02-09T17:48:52.482Z,1004.95
2019-02-09T17:49:52.491Z,1004.87
2019-02-09T17:50:52.453Z,1004.87
2019-02-09T17:51:52.450Z,1004.95
2019-02-09T17:52:52.433Z,1004.96
2019-02-09T17:53:52.419Z,1004.94
2019-02-09T17:54:52.426Z,1005.06
2019-02-09T17:55:52.397Z,1004.99
2019-02-09T17:56:52.383Z,1005.04
2019-02-09T17:57:52.378Z,1004.97
2019-02-09T17:58:52.365Z,1005.02
2019-02-09T17:59:52.374Z,1004.99
2019-02-09T18:00:52.412Z,1004.99
2019-02-09T18:01:52.336Z,1004.99
2019-02-09T18:02:52.335Z,1005.02
2019-02-09T18:03:52.310Z,1004.93
2019-02-09T18:04:52.319Z,1004.96
2019-02-09T18:05:52.288Z,1005.03
2019-02-09T18:06:52.274Z,1005.01
2019-02-09T18:07:52.269Z,1005.07
2019-02-09T18:08:52.254Z,1005.10
2019-02-09T18:09:52.283Z,1005.13
2019-02-09T18:10:52.230Z,1005.15
2019-02-09T18:11:52.219Z,1005.18
2019-02-09T18:12:52.207Z,1005.23
2019-02-09T18:13:52.257Z,1005.18
2019-02-09T18:14:52.191Z,1005.21
2019-02-09T18:15:53.133Z,1005.24
2019-02-09T18:16:52.167Z,1005.19
2019-02-09T18:17:52.155Z,1005.23
2019-02-09T18:18:52.143Z,1005.14
2019-02-09T18:19:52.131Z,1005.23
2019-02-09T18:20:52.150Z,1005.30
2019-02-09T18:21:52.112Z,1005.24
2019-02-09T18:22:52.099Z,1005.24
2019-02-09T18:23:52.089Z,1005.14
2019-02-09T18:24:52.076Z,1005.17
2019-02-09T18:25:52.083Z,1005.19
2019-02-09T18:26:52.049Z,1005.26
2019-02-09T18:27:52.037Z,1005.25
2019-02-09T18:28:52.029Z,1005.23
2019-02-09T18:29:52.015Z,1005.26
2019-02-09T18:30:52.026Z,1005.26
2019-02-09T18:31:52.000Z,1005.20
2019-02-09T18:32:51.988Z,1005.23
2019-02-09T18:33:51.975Z,1005.24
2019-02-09T18:34:56.200Z,1005.23
2019-02-09T18:35:51.977Z,1005.24
2019-02-09T18:36:51.945Z,1005.27
2019-02-09T18:37:51.949Z,1005.32
2019-02-09T18:38:51.939Z,1005.31
2019-02-09T18:39:51.923Z,1005.28
2019-02-09T18:40:52.051Z,1005.32
2019-02-09T18:42:04.992Z,1005.33
2019-02-09T18:42:51.905Z,1005.33
2019-02-09T18:43:51.860Z,1005.31
2019-02-09T18:44:51.846Z,1005.30
2019-02-09T18:45:57.665Z,1005.31
2019-02-09T18:46:52.843Z,1005.31
2019-02-09T18:47:51.815Z,1005.32
2019-02-09T18:48:51.801Z,1005.34
2019-02-09T18:49:51.792Z,1005.33
2019-02-09T18:50:51.782Z,1005.31
2019-02-09T18:51:51.790Z,1005.24
2019-02-09T18:52:51.765Z,1005.26
2019-02-09T18:53:51.764Z,1005.25
2019-02-09T18:54:51.736Z,1005.20
2019-02-09T18:55:51.724Z,1005.16
2019-02-09T18:56:51.735Z,1005.17
2019-02-09T18:57:51.701Z,1005.24
2019-02-09T18:58:51.691Z,1005.19
2019-02-09T18:59:51.680Z,1005.17
2019-02-09T19:00:51.674Z,1005.16
2019-02-09T19:01:51.680Z,1005.21
2019-02-09T19:02:51.651Z,1005.24
2019-02-09T19:03:51.636Z,1005.26
2019-02-09T19:04:51.626Z,1005.33
2019-02-09T19:05:51.614Z,1005.26
2019-02-09T19:06:51.610Z,1005.29
2019-02-09T19:07:51.651Z,1005.23
2019-02-09T19:08:51.579Z,1005.24
2019-02-09T19:09:51.594Z,1005.21
2019-02-09T19:10:51.557Z,1005.19
2019-02-09T19:11:51.547Z,1005.27
2019-02-09T19:12:51.557Z,1005.16
2019-02-09T19:13:51.526Z,1005.29
2019-02-09T19:14:51.516Z,1005.26
2019-02-09T19:15:51.504Z,1005.34
2019-02-09T19:16:51.492Z,1005.27
2019-02-09T19:17:51.501Z,1005.27
2019-02-09T19:18:51.472Z,1005.29
2019-02-09T19:19:51.459Z,1005.26
2019-02-09T19:20:51.447Z,1005.23
2019-02-09T19:21:51.435Z,1005.15
2019-02-09T19:22:51.444Z,1005.24
2019-02-09T19:23:51.414Z,1005.23
2019-02-09T19:24:51.403Z,1005.25
2019-02-09T19:25:51.392Z,1005.25
2019-02-09T19:26:51.383Z,1005.26
2019-02-09T19:27:51.395Z,1005.35
2019-02-09T19:28:51.355Z,1005.36
2019-02-09T19:29:51.372Z,1005.33
2019-02-09T19:30:51.358Z,1005.36
2019-02-09T19:31:51.332Z,1005.33
2019-02-09T19:32:51.326Z,1005.34
2019-02-09T19:33:51.337Z,1005.40
2019-02-09T19:34:51.324Z,1005.49
2019-02-09T19:35:51.284Z,1005.36
2019-02-09T19:36:51.322Z,1005.37
2019-02-09T19:37:51.267Z,1005.47
2019-02-09T19:38:51.298Z,1005.48
2019-02-09T19:39:51.242Z,1005.51
2019-02-09T19:40:51.239Z,1005.49
2019-02-09T19:41:51.223Z,1005.51
2019-02-09T19:42:51.206Z,1005.52
2019-02-09T19:43:51.201Z,1005.52
2019-02-09T19:44:51.208Z,1005.53
2019-02-09T19:45:51.172Z,1005.53
2019-02-09T19:46:51.168Z,1005.55
2019-02-09T19:47:51.152Z,1005.44
2019-02-09T19:48:51.149Z,1005.51
2019-02-09T19:49:51.154Z,1005.44
2019-02-09T19:50:51.119Z,1005.52
2019-02-09T19:51:51.105Z,1005.45
2019-02-09T19:52:51.099Z,1005.51
2019-02-09T19:53:51.083Z,1005.45
2019-02-09T19:54:51.101Z,1005.41
2019-02-09T19:55:51.061Z,1005.42
2019-02-09T19:56:51.050Z,1005.40
2019-02-09T19:57:51.039Z,1005.41
2019-02-09T19:58:51.028Z,1005.32
2019-02-09T19:59:51.042Z,1005.28
2019-02-09T20:00:51.008Z,1005.37
2019-02-09T20:01:50.997Z,1005.33
2019-02-09T20:02:50.995Z,1005.36
2019-02-09T20:03:50.977Z,1005.35
2019-02-09T20:04:50.985Z,1005.31
2019-02-09T20:05:50.958Z,1005.25
2019-02-09T20:06:50.942Z,1005.27
2019-02-09T20:07:50.928Z,1005.26
2019-02-09T20:08:50.918Z,1005.26
2019-02-09T20:09:50.928Z,1005.26
2019-02-09T20:10:50.897Z,1005.24
2019-02-09T20:11:50.884Z,1005.30
2019-02-09T20:12:50.878Z,1005.22
2019-02-09T20:13:50.865Z,1005.16
2019-02-09T20:14:50.871Z,1005.18
2019-02-09T20:15:50.845Z,1005.15
2019-02-09T20:16:50.837Z,1005.12
2019-02-09T20:17:50.819Z,1005.21
2019-02-09T20:18:51.878Z,1005.20
2019-02-09T20:19:50.822Z,1005.15
2019-02-09T20:20:50.788Z,1005.07
2019-02-09T20:21:50.778Z,1005.08
2019-02-09T20:22:50.765Z,1005.09
2019-02-09T20:23:50.754Z,1005.07
2019-02-09T20:24:50.761Z,1005.02
2019-02-09T20:25:50.730Z,1005.04
2019-02-09T20:26:50.715Z,1005.04
2019-02-09T20:27:50.708Z,1004.98
2019-02-09T20:28:50.697Z,1004.98
2019-02-09T20:29:50.708Z,1004.95
2019-02-09T20:30:50.714Z,1004.91
2019-02-09T20:31:50.664Z,1004.95
2019-02-09T20:32:50.647Z,1004.86
2019-02-09T20:33:50.643Z,1004.95
2019-02-09T20:34:50.658Z,1004.99
2019-02-09T20:35:50.615Z,1004.93
2019-02-09T20:36:50.604Z,1004.94
2019-02-09T20:37:50.595Z,1004.94
2019-02-09T20:38:50.584Z,1004.99
2019-02-09T20:39:50.583Z,1004.95
2019-02-09T20:40:50.590Z,1004.94
2019-02-09T20:41:50.554Z,1004.95
2019-02-09T20:42:50.538Z,1005.06
2019-02-09T20:43:50.527Z,1004.99
2019-02-09T20:44:50.523Z,1005.02
2019-02-09T20:45:50.534Z,1005.03
2019-02-09T20:46:50.497Z,1004.98
2019-02-09T20:47:50.484Z,1004.95
2019-02-09T20:48:50.470Z,1004.95
2019-02-09T20:49:50.465Z,1004.93
2019-02-09T20:50:50.454Z,1004.94
2019-02-09T20:51:50.461Z,1004.94
2019-02-09T20:52:50.435Z,1004.94
2019-02-09T20:53:50.419Z,1004.89
2019-02-09T20:54:50.404Z,1004.88
2019-02-09T20:55:50.390Z,1004.92
2019-02-09T20:56:50.427Z,1004.90
2019-02-09T20:57:50.377Z,1004.86
2019-02-09T20:58:50.362Z,1004.87
2019-02-09T20:59:50.348Z,1004.84
2019-02-09T21:00:50.341Z,1004.92
2019-02-09T21:01:50.356Z,1004.94
2019-02-09T21:02:50.319Z,1004.93
2019-02-09T21:03:50.307Z,1004.85
2019-02-09T21:04:50.298Z,1004.91
2019-02-09T21:05:50.282Z,1004.90
2019-02-09T21:06:50.274Z,1004.84
2019-02-09T21:07:50.290Z,1004.93
2019-02-09T21:08:50.255Z,1004.91
2019-02-09T21:09:50.237Z,1004.89
2019-02-09T21:10:50.228Z,1004.89
2019-02-09T21:11:50.215Z,1004.89
2019-02-09T21:12:50.229Z,1004.93
2019-02-09T21:13:50.195Z,1004.84
2019-02-09T21:14:50.182Z,1004.98
2019-02-09T21:15:50.166Z,1004.89
2019-02-09T21:16:51.793Z,1004.94
2019-02-09T21:17:50.171Z,1004.96
2019-02-09T21:18:50.137Z,1004.94
2019-02-09T21:19:50.123Z,1004.94
2019-02-09T21:20:50.151Z,1004.96
2019-02-09T21:21:50.103Z,1004.91
2019-02-09T21:22:50.110Z,1004.91
2019-02-09T21:23:50.078Z,1004.93
2019-02-09T21:24:50.067Z,1004.93
2019-02-09T21:25:50.057Z,1004.93
2019-02-09T21:26:50.049Z,1004.95
2019-02-09T21:27:50.059Z,1004.90
2019-02-09T21:28:50.026Z,1004.94
2019-02-09T21:29:50.014Z,1004.88
2019-02-09T21:30:50.003Z,1004.90
2019-02-09T21:31:49.993Z,1004.85
2019-02-09T21:32:50.018Z,1004.85
2019-02-09T21:33:49.979Z,1004.92
2019-02-09T21:34:49.959Z,1004.92
2019-02-09T21:35:49.951Z,1004.95
2019-02-09T21:36:49.936Z,1004.97
2019-02-09T21:37:49.930Z,1004.91
2019-02-09T21:38:49.941Z,1005.01
2019-02-09T21:39:49.905Z,1005.02